Time;durP1;ratioP1;P1;durP2;ratioP2;P2;SDS_P1;SDS_P2;PMS_P1;PMS_P2;Temp;Humidity;BMP_temperature;BMP_pressure;BME280_temperature;BME280_humidity;BME280_pressure;Samples;Min_cycle;Max_cycle;Signal;HPM_P1;HPM_P2
2024/01/05 00:00:30;;;;;;;23.77;7.07;;;;;;;;;;4957848;29;20039;-61
2024/01/05 00:02:59;;;;;;;22.85;7.65;;;;;;;;;;4957538;29;20031;-62
2024/01/05 00:05:24;;;;;;;33.13;7.80;;;;;;;;;;4957651;29;20035;-61
2024/01/05 00:07:50;;;;;;;28.90;9.13;;;;;;;;;;4959456;29;20351;-61
2024/01/05 00:10:16;;;;;;;25.90;7.53;;;;;;;;;;4959669;29;20196;-61
2024/01/05 00:12:41;;;;;;;41.35;9.35;;;;;;;;;;4960314;29;20038;-61
2024/01/05 00:15:07;;;;;;;34.07;7.83;;;;;;;;;;4957613;29;20039;-61
2024/01/05 00:17:33;;;;;;;;;;;;;;;;;;4957581;29;20274;-60
2024/01/05 00:19:58;;;;;;;23.60;7.68;;;;;;;;;;4962447;29;19918;-61
2024/01/05 00:22:23;;;;;;;18.23;6.97;;;;;;;;;;4965452;29;20024;-61
2024/01/05 00:24:48;;;;;;;21.50;6.50;;;;;;;;;;4968431;29;20027;-61
2024/01/05 00:27:14;;;;;;;23.80;6.53;;;;;;;;;;4962080;28;20043;-60
2024/01/05 00:29:39;;;;;;;26.83;7.70;;;;;;;;;;4957371;29;20070;-62
2024/01/05 00:32:05;;;;;;;26.20;6.57;;;;;;;;;;4960868;29;20034;-61
2024/01/05 00:34:30;;;;;;;22.60;7.03;;;;;;;;;;4945505;29;20051;-61
2024/01/05 00:36:55;;;;;;;31.73;7.57;;;;;;;;;;4958180;29;20153;-61
2024/01/05 00:39:21;;;;;;;34.30;7.38;;;;;;;;;;4957733;29;20039;-61
2024/01/05 00:41:47;;;;;;;34.83;6.60;;;;;;;;;;4948704;29;20040;-61
2024/01/05 00:44:13;;;;;;;26.27;6.65;;;;;;;;;;4965794;29;20055;-61
2024/01/05 00:46:39;;;;;;;29.58;8.35;;;;;;;;;;4956752;29;20068;-61
2024/01/05 00:49:05;;;;;;;29.73;7.78;;;;;;;;;;4962137;29;20044;-62
2024/01/05 00:51:31;;;;;;;28.42;7.13;;;;;;;;;;4964435;29;20064;-61
2024/01/05 00:53:56;;;;;;;29.23;6.33;;;;;;;;;;4963027;29;20043;-61
2024/01/05 00:56:22;;;;;;;30.17;8.23;;;;;;;;;;4962648;29;20097;-61
2024/01/05 00:58:47;;;;;;;25.93;6.37;;;;;;;;;;4956716;29;20063;-62
2024/01/05 01:01:12;;;;;;;30.60;7.53;;;;;;;;;;4959662;29;20028;-62
2024/01/05 01:03:38;;;;;;;19.40;5.95;;;;;;;;;;4958367;29;20035;-61
2024/01/05 01:06:04;;;;;;;22.77;6.53;;;;;;;;;;4956786;29;20027;-62
2024/01/05 01:08:29;;;;;;;37.78;5.82;;;;;;;;;;4962076;29;20091;-62
2024/01/05 01:10:55;;;;;;;33.70;6.63;;;;;;;;;;4956559;29;20047;-61
2024/01/05 01:13:20;;;;;;;19.53;5.40;;;;;;;;;;4961504;29;20296;-61
2024/01/05 01:15:46;;;;;;;39.10;6.93;;;;;;;;;;4956546;29;20035;-61
2024/01/05 01:18:11;;;;;;;24.80;6.27;;;;;;;;;;4942891;29;20048;-61
2024/01/05 01:20:37;;;;;;;32.08;6.05;;;;;;;;;;4961239;29;20027;-61
2024/01/05 01:23:02;;;;;;;25.13;5.37;;;;;;;;;;4963381;29;20028;-61
2024/01/05 01:25:28;;;;;;;23.17;5.90;;;;;;;;;;4957874;29;20126;-62
2024/01/05 01:27:53;;;;;;;21.17;4.03;;;;;;;;;;4964508;29;20572;-60
2024/01/05 01:30:19;;;;;;;33.63;5.83;;;;;;;;;;4959508;29;20047;-61
2024/01/05 01:32:44;;;;;;;19.30;5.60;;;;;;;;;;4956218;29;20087;-62
2024/01/05 01:35:09;;;;;;;28.73;5.73;;;;;;;;;;4958832;29;20455;-61
2024/01/05 01:37:35;;;;;;;27.70;4.90;;;;;;;;;;4969402;29;20027;-61
2024/01/05 01:40:01;;;;;;;19.88;5.00;;;;;;;;;;4961342;29;20036;-62
2024/01/05 01:42:26;;;;;;;22.63;5.17;;;;;;;;;;4972980;29;20034;-61
2024/01/05 01:44:51;;;;;;;27.00;5.80;;;;;;;;;;4962161;29;20062;-61
2024/01/05 01:47:17;;;;;;;34.03;6.23;;;;;;;;;;4966555;29;20071;-61
2024/01/05 01:49:42;;;;;;;16.17;4.22;;;;;;;;;;4960408;29;20027;-61
2024/01/05 01:52:08;;;;;;;21.13;4.85;;;;;;;;;;4965443;29;20040;-61
2024/01/05 01:54:34;;;;;;;24.47;4.27;;;;;;;;;;4964831;29;20039;-61
2024/01/05 01:56:59;;;;;;;17.20;4.35;;;;;;;;;;4963788;29;20277;-60
2024/01/05 01:59:25;;;;;;;31.95;4.50;;;;;;;;;;4955859;29;20184;-61
2024/01/05 02:01:51;;;;;;;16.10;4.97;;;;;;;;;;4960190;29;20027;-61
2024/01/05 02:04:18;;;;;;;29.47;5.53;;;;;;;;;;4960164;29;20039;-61
2024/01/05 02:06:44;;;;;;;22.00;4.10;;;;;;;;;;4959829;29;20269;-61
2024/01/05 02:09:10;;;;;;;16.77;3.27;;;;;;;;;;4957643;29;20322;-61
2024/01/05 02:11:36;;;;;;;19.63;3.83;;;;;;;;;;4959886;29;20277;-61
2024/01/05 02:14:02;;;;;;;17.33;3.88;;;;;;;;;;4965609;29;20290;-61
2024/01/05 02:16:27;;;;;;;21.83;4.10;;;;;;;;;;4959642;29;20067;-60
2024/01/05 02:18:52;;;;;;;19.83;4.43;;;;;;;;;;4960790;29;20032;-61
2024/01/05 02:21:22;;;;;;;12.15;4.43;;;;;;;;;;4966836;29;20074;-61
2024/01/05 02:23:47;;;;;;;19.00;4.80;;;;;;;;;;4960178;29;20046;-61
2024/01/05 02:26:13;;;;;;;16.07;3.40;;;;;;;;;;4959440;29;20278;-61
2024/01/05 02:28:38;;;;;;;22.20;4.13;;;;;;;;;;4959149;29;20036;-60
2024/01/05 02:31:04;;;;;;;18.93;3.87;;;;;;;;;;4961190;29;20067;-59
2024/01/05 02:33:29;;;;;;;22.50;4.60;;;;;;;;;;4960525;29;20167;-60
2024/01/05 02:35:55;;;;;;;22.53;5.27;;;;;;;;;;4959238;29;20043;-59
2024/01/05 02:38:20;;;;;;;16.40;3.57;;;;;;;;;;4959190;29;20023;-59
2024/01/05 02:40:46;;;;;;;13.27;3.22;;;;;;;;;;4962022;29;20031;-60
2024/01/05 02:43:11;;;;;;;20.30;4.23;;;;;;;;;;4963042;29;20102;-60
2024/01/05 02:45:37;;;;;;;15.03;3.93;;;;;;;;;;4965912;29;20298;-60
2024/01/05 02:48:03;;;;;;;12.17;3.83;;;;;;;;;;4958969;29;20270;-60
2024/01/05 02:50:28;;;;;;;13.17;3.40;;;;;;;;;;4958963;29;20270;-59
2024/01/05 02:52:54;;;;;;;16.20;3.85;;;;;;;;;;4960426;29;20035;-60
2024/01/05 02:55:20;;;;;;;26.92;4.70;;;;;;;;;;4961322;29;20096;-59
2024/01/05 02:57:45;;;;;;;26.87;3.77;;;;;;;;;;4958720;29;20031;-59
2024/01/05 03:00:11;;;;;;;19.13;3.27;;;;;;;;;;4959381;29;20266;-60
2024/01/05 03:02:36;;;;;;;24.20;3.83;;;;;;;;;;4958914;29;20055;-61
2024/01/05 03:05:03;;;;;;;19.70;3.42;;;;;;;;;;4959507;29;20036;-61
2024/01/05 03:07:29;;;;;;;10.32;2.70;;;;;;;;;;4958690;29;20091;-59
2024/01/05 03:09:54;;;;;;;22.42;4.55;;;;;;;;;;4958905;29;20031;-62
2024/01/05 03:12:19;;;;;;;17.47;3.70;;;;;;;;;;4959666;29;20047;-59
2024/01/05 03:14:45;;;;;;;16.27;2.97;;;;;;;;;;4960784;29;20040;-60
2024/01/05 03:17:10;;;;;;;12.97;3.80;;;;;;;;;;4958562;29;20035;-60
2024/01/05 03:19:36;;;;;;;18.88;4.30;;;;;;;;;;4964746;29;20051;-61
2024/01/05 03:22:01;;;;;;;16.27;3.60;;;;;;;;;;4970685;29;20027;-59
2024/01/05 03:24:27;;;;;;;18.03;4.23;;;;;;;;;;4959775;29;20366;-60
2024/01/05 03:26:52;;;;;;;17.23;2.93;;;;;;;;;;4958240;29;20286;-59
2024/01/05 03:29:18;;;;;;;7.32;2.95;;;;;;;;;;4957422;29;20036;-58
2024/01/05 03:31:43;;;;;;;17.83;3.33;;;;;;;;;;4959501;29;20055;-58
2024/01/05 03:34:09;;;;;;;9.65;2.60;;;;;;;;;;4963010;29;20047;-61
2024/01/05 03:36:34;;;;;;;18.87;3.50;;;;;;;;;;4960870;29;20027;-59
2024/01/05 03:39:00;;;;;;;13.20;2.92;;;;;;;;;;4964689;29;20030;-57
2024/01/05 03:41:25;;;;;;;14.38;2.85;;;;;;;;;;4963738;29;20041;-61
2024/01/05 03:43:51;;;;;;;17.93;3.17;;;;;;;;;;4957772;29;20035;-60
2024/01/05 03:46:16;;;;;;;10.53;2.80;;;;;;;;;;4957964;29;20270;-60
2024/01/05 03:48:42;;;;;;;11.50;2.97;;;;;;;;;;4960421;29;20338;-60
2024/01/05 03:51:08;;;;;;;11.65;2.47;;;;;;;;;;4961544;29;20067;-58
2024/01/05 03:53:33;;;;;;;14.60;4.22;;;;;;;;;;4962064;29;20033;-60
2024/01/05 03:55:59;;;;;;;15.17;3.37;;;;;;;;;;4960310;29;20024;-61
2024/01/05 03:58:24;;;;;;;15.30;5.07;;;;;;;;;;4958062;29;20046;-59
2024/01/05 04:00:50;;;;;;;22.40;3.95;;;;;;;;;;4961538;29;20027;-61
2024/01/05 04:03:17;;;;;;;9.97;2.83;;;;;;;;;;4966896;29;20035;-60
2024/01/05 04:05:43;;;;;;;16.80;2.97;;;;;;;;;;4958574;29;20028;-60
2024/01/05 04:08:09;;;;;;;13.38;2.95;;;;;;;;;;4957731;29;20331;-60
2024/01/05 04:10:35;;;;;;;15.87;3.03;;;;;;;;;;4952687;29;20047;-61
2024/01/05 04:13:00;;;;;;;6.97;2.08;;;;;;;;;;4966948;29;20054;-59
2024/01/05 04:15:26;;;;;;;8.57;2.47;;;;;;;;;;4962982;29;20035;-61
2024/01/05 04:17:51;;;;;;;8.75;2.88;;;;;;;;;;4957650;29;20028;-58
2024/01/05 04:20:17;;;;;;;12.02;2.72;;;;;;;;;;4957638;29;20096;-61
2024/01/05 04:22:43;;;;;;;11.37;2.53;;;;;;;;;;4959819;29;20043;-60
2024/01/05 04:25:08;;;;;;;14.70;2.90;;;;;;;;;;4963287;29;20285;-61
2024/01/05 04:27:33;;;;;;;17.80;3.17;;;;;;;;;;4957730;29;20281;-60
2024/01/05 04:29:58;;;;;;;8.40;2.57;;;;;;;;;;4963481;29;20027;-57
2024/01/05 04:32:24;;;;;;;7.07;2.50;;;;;;;;;;4957249;29;20040;-58
2024/01/05 04:34:49;;;;;;;18.10;3.57;;;;;;;;;;4964199;29;20035;-60
2024/01/05 04:37:15;;;;;;;12.60;3.83;;;;;;;;;;4967827;29;20270;-58
2024/01/05 04:39:43;;;;;;;7.43;2.38;;;;;;;;;;4956966;29;20079;-60
2024/01/05 04:42:09;;;;;;;7.70;2.30;;;;;;;;;;4959272;29;20070;-60
2024/01/05 04:44:34;;;;;;;10.40;2.42;;;;;;;;;;4961701;29;20274;-59
2024/01/05 04:46:59;;;;;;;12.70;2.10;;;;;;;;;;4956960;29;20120;-58
2024/01/05 04:49:26;;;;;;;10.77;2.00;;;;;;;;;;4956932;29;20067;-61
2024/01/05 04:51:51;;;;;;;8.70;2.38;;;;;;;;;;4957930;29;20078;-58
2024/01/05 04:54:17;;;;;;;11.23;2.08;;;;;;;;;;4961804;29;20032;-60
2024/01/05 04:56:42;;;;;;;8.55;1.58;;;;;;;;;;4948975;29;20047;-58
2024/01/05 04:59:08;;;;;;;11.87;2.47;;;;;;;;;;4956682;29;20075;-61
2024/01/05 05:01:33;;;;;;;12.77;2.27;;;;;;;;;;4957110;29;20282;-59
2024/01/05 05:03:58;;;;;;;19.53;2.50;;;;;;;;;;4957456;29;20042;-60
2024/01/05 05:06:24;;;;;;;9.73;2.50;;;;;;;;;;4962032;29;20091;-59
2024/01/05 05:08:49;;;;;;;12.77;2.15;;;;;;;;;;4956491;29;20038;-56
2024/01/05 05:11:15;;;;;;;7.60;2.80;;;;;;;;;;4958909;29;20103;-60
2024/01/05 05:13:40;;;;;;;10.30;2.13;;;;;;;;;;4961236;29;20040;-59
2024/01/05 05:16:06;;;;;;;13.50;2.60;;;;;;;;;;4969609;29;20047;-61
2024/01/05 05:18:32;;;;;;;11.63;2.55;;;;;;;;;;4961608;29;20046;-60
2024/01/05 05:20:57;;;;;;;8.33;2.30;;;;;;;;;;4956696;29;20047;-60
2024/01/05 05:23:22;;;;;;;13.80;2.03;;;;;;;;;;4960037;29;20024;-60
2024/01/05 05:25:48;;;;;;;16.00;3.03;;;;;;;;;;4963978;29;20023;-59
2024/01/05 05:28:13;;;;;;;6.45;1.95;;;;;;;;;;4956613;29;20031;-59
2024/01/05 05:30:39;;;;;;;6.57;1.80;;;;;;;;;;4956730;29;20075;-59
2024/01/05 05:33:04;;;;;;;14.00;2.73;;;;;;;;;;4959784;29;20068;-60
2024/01/05 05:35:30;;;;;;;8.20;2.43;;;;;;;;;;4961042;29;20039;-60
2024/01/05 05:37:56;;;;;;;11.00;2.22;;;;;;;;;;4956510;29;20047;-59
2024/01/05 05:40:21;;;;;;;11.87;2.73;;;;;;;;;;4958615;29;20036;-59
2024/01/05 05:42:47;;;;;;;8.33;1.73;;;;;;;;;;4961267;29;20314;-59
2024/01/05 05:45:13;;;;;;;12.20;2.50;;;;;;;;;;4956572;29;20063;-59
2024/01/05 05:47:38;;;;;;;6.55;2.15;;;;;;;;;;4956230;29;20067;-59
2024/01/05 05:50:06;;;;;;;13.27;2.87;;;;;;;;;;4956779;29;20040;-59
2024/01/05 05:52:32;;;;;;;8.90;2.20;;;;;;;;;;4962015;29;20055;-59
2024/01/05 05:54:58;;;;;;;10.00;1.77;;;;;;;;;;4956240;29;20297;-59
2024/01/05 05:57:23;;;;;;;5.97;1.97;;;;;;;;;;4965628;29;20024;-59
2024/01/05 05:59:50;;;;;;;9.98;2.63;;;;;;;;;;4956538;29;20035;-59
2024/01/05 06:02:16;;;;;;;5.60;1.47;;;;;;;;;;4963879;29;20031;-58
2024/01/05 06:04:42;;;;;;;10.80;2.05;;;;;;;;;;4958916;29;20275;-56
2024/01/05 06:07:07;;;;;;;8.83;1.90;;;;;;;;;;4970730;29;20031;-61
2024/01/05 06:09:33;;;;;;;13.13;2.40;;;;;;;;;;4956481;29;20266;-59
2024/01/05 06:11:58;;;;;;;12.20;1.80;;;;;;;;;;4956072;29;20039;-58
2024/01/05 06:14:24;;;;;;;15.18;2.17;;;;;;;;;;4956431;29;20043;-58
2024/01/05 06:16:49;;;;;;;9.20;1.80;;;;;;;;;;4961822;29;20059;-60
2024/01/05 06:19:15;;;;;;;13.53;3.13;;;;;;;;;;4956229;29;20055;-60
2024/01/05 06:21:41;;;;;;;10.32;1.90;;;;;;;;;;4941019;29;20055;-54
2024/01/05 06:24:06;;;;;;;15.57;1.57;;;;;;;;;;4959776;29;20067;-58
2024/01/05 06:26:31;;;;;;;4.83;1.70;;;;;;;;;;4946247;29;20035;-58
2024/01/05 06:28:56;;;;;;;6.37;1.60;;;;;;;;;;4959616;29;20120;-58
2024/01/05 06:31:23;;;;;;;6.82;1.95;;;;;;;;;;4960619;29;20060;-59
2024/01/05 06:33:48;;;;;;;12.75;2.38;;;;;;;;;;4953137;29;20039;-59
2024/01/05 06:36:13;;;;;;;8.00;1.37;;;;;;;;;;4958997;29;20035;-59
2024/01/05 06:38:38;;;;;;;8.33;1.40;;;;;;;;;;4943175;29;20134;-59
2024/01/05 06:41:04;;;;;;;3.33;1.10;;;;;;;;;;4961114;29;20035;-54
2024/01/05 06:43:29;;;;;;;6.27;1.47;;;;;;;;;;4968789;29;20036;-58
2024/01/05 06:45:55;;;;;;;5.07;0.90;;;;;;;;;;4970181;29;20274;-59
2024/01/05 06:48:20;;;;;;;1.20;0.67;;;;;;;;;;4958944;29;20042;-58
2024/01/05 06:50:45;;;;;;;4.93;0.60;;;;;;;;;;4959149;29;20040;-59
2024/01/05 06:53:10;;;;;;;4.63;1.23;;;;;;;;;;4965540;29;20091;-60
2024/01/05 06:55:36;;;;;;;2.95;0.60;;;;;;;;;;4967748;29;20090;-59
2024/01/05 06:58:02;;;;;;;0.88;0.45;;;;;;;;;;4961803;29;20028;-57
2024/01/05 07:00:28;;;;;;;2.78;0.60;;;;;;;;;;4959319;29;20034;-58
2024/01/05 07:02:54;;;;;;;1.55;0.50;;;;;;;;;;4961754;29;20035;-57
2024/01/05 07:05:20;;;;;;;1.83;0.75;;;;;;;;;;4958872;29;20059;-58
2024/01/05 07:07:45;;;;;;;2.17;0.40;;;;;;;;;;4957323;29;20039;-57
2024/01/05 07:10:10;;;;;;;2.80;0.60;;;;;;;;;;4958927;29;20140;-60
2024/01/05 07:12:36;;;;;;;0.40;0.40;;;;;;;;;;4958734;29;20059;-59
2024/01/05 07:15:01;;;;;;;1.77;0.37;;;;;;;;;;4949238;29;20035;-60
2024/01/05 07:17:27;;;;;;;1.85;0.30;;;;;;;;;;4959249;29;20287;-58
2024/01/05 07:19:52;;;;;;;1.90;0.60;;;;;;;;;;4958616;29;20051;-57
2024/01/05 07:22:18;;;;;;;1.27;0.50;;;;;;;;;;4958893;29;20284;-58
2024/01/05 07:24:43;;;;;;;1.42;0.65;;;;;;;;;;4963186;29;20027;-59
2024/01/05 07:27:10;;;;;;;0.30;0.30;;;;;;;;;;4960122;29;20039;-58
2024/01/05 07:29:36;;;;;;;2.73;0.50;;;;;;;;;;4958553;29;20036;-59
2024/01/05 07:32:04;;;;;;;3.13;0.70;;;;;;;;;;4959726;29;20278;-59
2024/01/05 07:34:30;;;;;;;3.97;0.70;;;;;;;;;;4966743;29;20039;-59
2024/01/05 07:36:56;;;;;;;0.73;0.43;;;;;;;;;;4970533;29;20273;-60
2024/01/05 07:39:21;;;;;;;1.67;0.70;;;;;;;;;;4958188;29;20334;-58
2024/01/05 07:41:47;;;;;;;6.78;1.00;;;;;;;;;;4938678;29;20059;-58
2024/01/05 07:44:14;;;;;;;1.07;0.60;;;;;;;;;;4974819;29;20041;-60
2024/01/05 07:46:41;;;;;;;3.63;0.73;;;;;;;;;;4970574;29;20275;-59
2024/01/05 07:49:06;;;;;;;0.93;0.55;;;;;;;;;;4960550;29;20028;-60
2024/01/05 07:51:32;;;;;;;1.95;0.80;;;;;;;;;;4957883;29;20040;-60
2024/01/05 07:53:57;;;;;;;0.73;0.50;;;;;;;;;;4958995;29;20042;-57
2024/01/05 07:56:23;;;;;;;3.58;0.70;;;;;;;;;;4964402;29;20024;-59
2024/01/05 07:58:49;;;;;;;3.53;0.70;;;;;;;;;;4966775;29;20031;-60
2024/01/05 08:01:18;;;;;;;1.13;0.60;;;;;;;;;;4959940;29;20266;-61
2024/01/05 08:03:44;;;;;;;6.23;0.70;;;;;;;;;;4963124;29;20075;-62
2024/01/05 08:06:13;;;;;;;1.30;0.50;;;;;;;;;;4962077;29;20290;-62
2024/01/05 08:08:40;;;;;;;1.60;0.83;;;;;;;;;;4957368;29;20039;-61
2024/01/05 08:11:05;;;;;;;7.47;1.20;;;;;;;;;;4957461;29;20345;-62
2024/01/05 08:13:30;;;;;;;3.20;0.70;;;;;;;;;;4961555;29;20042;-61
2024/01/05 08:15:56;;;;;;;1.60;0.67;;;;;;;;;;4957934;29;20027;-60
2024/01/05 08:18:21;;;;;;;7.50;1.27;;;;;;;;;;4957673;29;20028;-61
2024/01/05 08:20:46;;;;;;;3.00;1.07;;;;;;;;;;4957277;29;20039;-61
2024/01/05 08:23:12;;;;;;;3.53;0.80;;;;;;;;;;4968241;29;20051;-61
2024/01/05 08:25:37;;;;;;;2.73;1.10;;;;;;;;;;4959327;29;20028;-61
2024/01/05 08:28:03;;;;;;;3.43;0.97;;;;;;;;;;4964087;29;20266;-61
2024/01/05 08:30:30;;;;;;;5.43;1.20;;;;;;;;;;4969464;29;20035;-60
2024/01/05 08:32:56;;;;;;;12.40;1.25;;;;;;;;;;4963719;29;20035;-62
2024/01/05 08:35:22;;;;;;;1.37;1.17;;;;;;;;;;4960489;29;20031;-61
2024/01/05 08:37:47;;;;;;;9.03;3.23;;;;;;;;;;4963588;29;20270;-60
2024/01/05 08:40:13;;;;;;;1.60;1.00;;;;;;;;;;4965497;29;20032;-61
2024/01/05 08:42:38;;;;;;;1.77;0.93;;;;;;;;;;4962105;29;20292;-61
2024/01/05 08:45:04;;;;;;;7.90;1.30;;;;;;;;;;4967273;28;20058;-61
2024/01/05 08:47:30;;;;;;;4.18;1.35;;;;;;;;;;4959984;29;20042;-62
2024/01/05 08:49:55;;;;;;;6.67;1.10;;;;;;;;;;4962048;29;20036;-62
2024/01/05 08:52:21;;;;;;;4.53;1.20;;;;;;;;;;4958306;29;20288;-61
2024/01/05 08:54:46;;;;;;;6.28;1.27;;;;;;;;;;4960637;29;20046;-61
2024/01/05 08:57:12;;;;;;;4.13;1.30;;;;;;;;;;4974903;29;20035;-62
2024/01/05 08:59:39;;;;;;;8.77;1.53;;;;;;;;;;4956784;29;20258;-62
2024/01/05 09:02:05;;;;;;;3.35;1.77;;;;;;;;;;4956871;29;20095;-61
2024/01/05 09:04:31;;;;;;;5.05;1.08;;;;;;;;;;4965609;29;20038;-63
2024/01/05 09:06:58;;;;;;;4.05;2.65;;;;;;;;;;4971170;29;20070;-62
2024/01/05 09:09:23;;;;;;;;;;;;;;;;;;4957261;29;20039;-62
2024/01/05 09:11:49;;;;;;;1.53;0.97;;;;;;;;;;4956695;29;19974;-61
2024/01/05 09:14:14;;;;;;;4.70;1.40;;;;;;;;;;4964095;29;20059;-62
2024/01/05 09:16:40;;;;;;;2.22;1.40;;;;;;;;;;4966232;29;20466;-62
2024/01/05 09:19:05;;;;;;;3.47;1.00;;;;;;;;;;4958121;29;20055;-61
2024/01/05 09:21:31;;;;;;;4.20;1.35;;;;;;;;;;4962323;29;20043;-61
2024/01/05 09:23:56;;;;;;;2.03;1.20;;;;;;;;;;4965278;29;20068;-61
2024/01/05 09:26:22;;;;;;;2.67;1.63;;;;;;;;;;4966266;29;20050;-63
2024/01/05 09:28:47;;;;;;;1.98;1.30;;;;;;;;;;4957221;29;20059;-62
2024/01/05 09:31:13;;;;;;;5.40;2.17;;;;;;;;;;4940213;29;20031;-62
2024/01/05 09:33:38;;;;;;;1.25;0.90;;;;;;;;;;4959165;29;20043;-62
2024/01/05 09:36:04;;;;;;;2.50;1.13;;;;;;;;;;4965845;29;20147;-62
2024/01/05 09:38:29;;;;;;;2.03;1.20;;;;;;;;;;4955980;29;20016;-61
2024/01/05 09:40:55;;;;;;;1.80;1.58;;;;;;;;;;4967684;29;20066;-61
2024/01/05 09:43:21;;;;;;;5.85;1.48;;;;;;;;;;4956447;29;20032;-61
2024/01/05 09:45:47;;;;;;;1.83;1.33;;;;;;;;;;4962664;29;20039;-63
2024/01/05 09:48:14;;;;;;;2.40;1.60;;;;;;;;;;4967188;29;20031;-63
2024/01/05 09:50:40;;;;;;;3.08;1.75;;;;;;;;;;4964105;29;20039;-62
2024/01/05 09:53:09;;;;;;;2.78;1.70;;;;;;;;;;4959889;29;20043;-61
2024/01/05 09:55:36;;;;;;;3.30;1.80;;;;;;;;;;4963244;29;20036;-61
2024/01/05 09:58:01;;;;;;;3.85;1.70;;;;;;;;;;4967162;29;20036;-62
2024/01/05 10:00:28;;;;;;;3.47;1.98;;;;;;;;;;4948030;29;20038;-62
2024/01/05 10:02:57;;;;;;;6.25;2.13;;;;;;;;;;4960105;29;20039;-61
2024/01/05 10:05:23;;;;;;;8.80;2.70;;;;;;;;;;4974312;29;20103;-62
2024/01/05 10:07:48;;;;;;;4.57;2.60;;;;;;;;;;4964887;29;20032;-62
2024/01/05 10:10:14;;;;;;;7.60;2.90;;;;;;;;;;4959397;29;20277;-63
2024/01/05 10:12:40;;;;;;;5.47;2.77;;;;;;;;;;4959759;29;20054;-62
2024/01/05 10:15:06;;;;;;;6.75;3.20;;;;;;;;;;4962837;29;20297;-62
2024/01/05 10:17:32;;;;;;;8.60;3.55;;;;;;;;;;4961728;29;20051;-62
2024/01/05 10:20:10;;;;;;;5.00;3.45;;;;;;;;;;4959377;29;20082;-61
2024/01/05 10:22:35;;;;;;;5.00;3.53;;;;;;;;;;4959554;29;20032;-64
2024/01/05 10:25:13;;;;;;;5.00;3.37;;;;;;;;;;4968219;29;20042;-62
2024/01/05 10:27:38;;;;;;;5.57;3.20;;;;;;;;;;4959070;29;20038;-62
2024/01/05 10:30:05;;;;;;;6.37;4.17;;;;;;;;;;4944724;29;20044;-62
2024/01/05 10:32:30;;;;;;;;;;;;;;;;;;4969863;29;20024;-62
2024/01/05 10:34:55;;;;;;;4.77;3.43;;;;;;;;;;4970128;29;19986;-61
2024/01/05 10:37:21;;;;;;;7.97;3.97;;;;;;;;;;4965647;29;20031;-61
2024/01/05 10:39:47;;;;;;;3.97;2.97;;;;;;;;;;4963282;29;20667;-62
2024/01/05 10:42:19;;;;;;;6.20;3.13;;;;;;;;;;4968399;29;20036;-61
2024/01/05 10:44:45;;;;;;;5.15;3.45;;;;;;;;;;4967577;29;20038;-61
2024/01/05 10:47:13;;;;;;;4.20;3.28;;;;;;;;;;4971568;29;20039;-61
2024/01/05 10:49:38;;;;;;;6.97;3.25;;;;;;;;;;4961626;29;20043;-61
2024/01/05 10:52:05;;;;;;;8.70;4.25;;;;;;;;;;4958722;29;20108;-61
2024/01/05 10:54:31;;;;;;;5.78;3.22;;;;;;;;;;4965629;29;20035;-61
2024/01/05 10:56:57;;;;;;;7.90;3.88;;;;;;;;;;4959503;29;20050;-60
2024/01/05 10:59:24;;;;;;;5.30;3.57;;;;;;;;;;4958695;29;20027;-61
2024/01/05 11:01:49;;;;;;;4.63;3.37;;;;;;;;;;4951089;29;20288;-61
2024/01/05 11:04:16;;;;;;;8.10;4.32;;;;;;;;;;4965022;29;20032;-61
2024/01/05 11:06:42;;;;;;;5.07;3.60;;;;;;;;;;4960697;29;20046;-61
2024/01/05 11:09:08;;;;;;;;;;;;;;;;;;4959981;29;20051;-61
2024/01/05 11:11:43;;;;;;;8.68;4.05;;;;;;;;;;4966144;29;19918;-61
2024/01/05 11:14:17;;;;;;;9.68;4.22;;;;;;;;;;4964852;29;20035;-61
2024/01/05 11:16:45;;;;;;;6.00;4.18;;;;;;;;;;4962050;29;20055;-61
2024/01/05 11:19:25;;;;;;;7.05;4.40;;;;;;;;;;4966909;29;20032;-61
2024/01/05 11:21:55;;;;;;;5.85;3.63;;;;;;;;;;4958052;29;20101;-61
2024/01/05 11:24:22;;;;;;;7.18;4.72;;;;;;;;;;4964842;29;20024;-61
2024/01/05 11:26:47;;;;;;;6.70;3.67;;;;;;;;;;4961492;29;20043;-62
2024/01/05 11:29:13;;;;;;;6.63;4.55;;;;;;;;;;4965905;29;20509;-62
2024/01/05 11:31:45;;;;;;;6.07;3.92;;;;;;;;;;4958970;29;20119;-61
2024/01/05 11:34:34;;;;;;;6.10;3.85;;;;;;;;;;4963327;29;20047;-61
2024/01/05 11:37:00;;;;;;;7.07;3.85;;;;;;;;;;4957720;29;20032;-61
2024/01/05 11:39:25;;;;;;;;;;;;;;;;;;4964495;29;20050;-61
2024/01/05 11:41:51;;;;;;;9.43;5.37;;;;;;;;;;4959175;29;19911;-61
2024/01/05 11:44:33;;;;;;;7.77;4.40;;;;;;;;;;4963156;29;20069;-60
2024/01/05 11:46:59;;;;;;;6.53;3.85;;;;;;;;;;4949931;29;20031;-61
2024/01/05 11:49:41;;;;;;;8.25;4.22;;;;;;;;;;4960395;29;20036;-60
2024/01/05 11:52:07;;;;;;;6.30;3.78;;;;;;;;;;4964076;29;20074;-61
2024/01/05 11:54:36;;;;;;;6.45;4.35;;;;;;;;;;4961865;29;20035;-61
2024/01/05 11:57:01;;;;;;;9.55;4.28;;;;;;;;;;4958303;29;20039;-59
2024/01/05 11:59:27;;;;;;;7.30;4.55;;;;;;;;;;4959047;29;20040;-61
2024/01/05 12:01:53;;;;;;;6.03;4.00;;;;;;;;;;4961655;29;20031;-62
2024/01/05 12:04:19;;;;;;;6.38;4.28;;;;;;;;;;4960271;29;20032;-60
2024/01/05 12:06:51;;;;;;;6.45;3.95;;;;;;;;;;4964340;29;20024;-61
2024/01/05 12:09:18;;;;;;;12.40;4.67;;;;;;;;;;4965889;29;20047;-62
2024/01/05 12:11:45;;;;;;;6.03;3.87;;;;;;;;;;4957349;29;20262;-62
2024/01/05 12:14:10;;;;;;;;;;;;;;;;;;4960553;29;20362;-60
2024/01/05 12:16:36;;;;;;;7.33;4.33;;;;;;;;;;4969522;29;19918;-61
2024/01/05 12:19:02;;;;;;;12.30;5.50;;;;;;;;;;4947376;29;20035;-63
2024/01/05 12:21:27;;;;;;;14.45;5.28;;;;;;;;;;4958874;29;20075;-62
2024/01/05 12:23:54;;;;;;;8.18;4.82;;;;;;;;;;4969031;29;20042;-62
2024/01/05 12:26:20;;;;;;;10.13;4.57;;;;;;;;;;4975367;29;20058;-64
2024/01/05 12:28:46;;;;;;;9.00;4.70;;;;;;;;;;4966090;29;20031;-62
2024/01/05 12:31:12;;;;;;;7.40;3.97;;;;;;;;;;4957334;29;20035;-63
2024/01/05 12:33:38;;;;;;;7.40;4.57;;;;;;;;;;4960359;29;20050;-62
2024/01/05 12:36:11;;;;;;;0.10;0.10;;;;;;;;;;4961694;29;20032;-62
2024/01/05 12:38:37;;;;;;;0.20;0.20;;;;;;;;;;4963136;29;20031;-64
2024/01/05 12:41:05;;;;;;;0.10;0.10;;;;;;;;;;4957123;29;20330;-65
2024/01/05 12:43:30;;;;;;;0.60;0.60;;;;;;;;;;4966228;29;20290;-62
2024/01/05 12:45:58;;;;;;;0.73;0.73;;;;;;;;;;4929891;29;20314;-62
2024/01/05 12:48:26;;;;;;;0.10;0.10;;;;;;;;;;4964848;29;20032;-63
2024/01/05 12:51:09;;;;;;;0.20;0.20;;;;;;;;;;4956853;29;20051;-62
2024/01/05 12:53:34;;;;;;;1.48;1.38;;;;;;;;;;4960603;29;20031;-62
2024/01/05 12:56:08;;;;;;;1.60;1.50;;;;;;;;;;4970065;29;20087;-63
2024/01/05 12:58:39;;;;;;;0.28;0.28;;;;;;;;;;4964618;29;20285;-63
2024/01/05 13:01:05;;;;;;;3.60;3.22;;;;;;;;;;4956585;29;20024;-63
2024/01/05 13:03:31;;;;;;;0.10;0.10;;;;;;;;;;4955724;29;20100;-62
2024/01/05 13:06:06;;;;;;;0.30;0.30;;;;;;;;;;4963391;29;20065;-62
2024/01/05 13:08:34;;;;;;;0.17;0.17;;;;;;;;;;4958992;29;20111;-62
2024/01/05 13:11:00;;;;;;;0.50;0.50;;;;;;;;;;4960672;29;20033;-62
2024/01/05 13:13:25;;;;;;;0.63;0.63;;;;;;;;;;4963409;29;20062;-62
2024/01/05 13:15:51;;;;;;;1.00;0.60;;;;;;;;;;4956978;29;20036;-62
2024/01/05 13:18:16;;;;;;;0.20;0.20;;;;;;;;;;4966503;29;20015;-62
2024/01/05 13:20:41;;;;;;;0.37;0.37;;;;;;;;;;4957641;29;20095;-62
2024/01/05 13:23:07;;;;;;;0.50;0.50;;;;;;;;;;4963410;29;20031;-62
2024/01/05 13:25:32;;;;;;;0.50;0.50;;;;;;;;;;4957225;29;20101;-61
2024/01/05 13:27:58;;;;;;;1.40;1.30;;;;;;;;;;4964840;29;20045;-61
2024/01/05 13:30:23;;;;;;;1.35;1.25;;;;;;;;;;4958195;29;20046;-61
2024/01/05 13:32:51;;;;;;;0.30;0.30;;;;;;;;;;4963135;29;20084;-61
2024/01/05 13:35:17;;;;;;;0.80;0.80;;;;;;;;;;4967310;29;20525;-61
2024/01/05 13:37:43;;;;;;;0.95;0.95;;;;;;;;;;4967389;29;20258;-61
2024/01/05 13:40:09;;;;;;;0.70;0.70;;;;;;;;;;4966506;29;20032;-61
2024/01/05 13:42:34;;;;;;;4.28;1.40;;;;;;;;;;4961938;29;20341;-61
2024/01/05 13:45:06;;;;;;;0.57;0.57;;;;;;;;;;4963774;29;20039;-61
2024/01/05 13:47:34;;;;;;;0.10;0.10;;;;;;;;;;4955443;29;20075;-61
2024/01/05 13:50:00;;;;;;;1.90;1.80;;;;;;;;;;4966403;29;20277;-60
2024/01/05 13:52:25;;;;;;;0.60;0.60;;;;;;;;;;4964058;29;20282;-61
2024/01/05 13:54:51;;;;;;;1.20;0.93;;;;;;;;;;4960098;29;20038;-61
2024/01/05 13:57:16;;;;;;;0.10;0.10;;;;;;;;;;4970067;29;20043;-61
2024/01/05 13:59:42;;;;;;;2.33;0.77;;;;;;;;;;4976727;29;20278;-62
2024/01/05 14:02:07;;;;;;;1.93;1.83;;;;;;;;;;4961474;29;20035;-61
2024/01/05 14:04:33;;;;;;;0.55;0.55;;;;;;;;;;4971292;29;20308;-61
2024/01/05 14:06:58;;;;;;;0.30;0.30;;;;;;;;;;4971243;29;20046;-61
2024/01/05 14:09:24;;;;;;;0.30;0.30;;;;;;;;;;4971627;29;20489;-61
2024/01/05 14:11:50;;;;;;;0.63;0.63;;;;;;;;;;4972033;29;20042;-62
2024/01/05 14:14:15;;;;;;;0.30;0.30;;;;;;;;;;4964879;29;20046;-61
2024/01/05 14:16:41;;;;;;;0.90;0.75;;;;;;;;;;4942693;29;20027;-62
2024/01/05 14:19:07;;;;;;;2.13;2.03;;;;;;;;;;4964137;29;20059;-61
2024/01/05 14:21:33;;;;;;;1.58;1.48;;;;;;;;;;4959790;29;20051;-61
2024/01/05 14:23:58;;;;;;;0.67;0.67;;;;;;;;;;4961253;29;20036;-60
2024/01/05 14:26:27;;;;;;;1.00;1.00;;;;;;;;;;4972045;29;20106;-61
2024/01/05 14:28:53;;;;;;;1.03;1.03;;;;;;;;;;4961456;29;20126;-61
2024/01/05 14:31:30;;;;;;;1.02;0.55;;;;;;;;;;4977866;29;20269;-61
2024/01/05 14:33:57;;;;;;;0.40;0.40;;;;;;;;;;4943924;29;20046;-61